sensor_id;sensor_type;location;lat;lon;timestamp;P1;durP1;ratioP1;P2;durP2;ratioP2
11590;SDS011;5851;54.050;9.974;2024-02-04T00:02:16;12.65;;;3.10;;
11590;SDS011;5851;54.050;9.974;2024-02-04T00:04:43;12.95;;;3.20;;
11590;SDS011;5851;54.050;9.974;2024-02-04T00:07:11;13.25;;;3.45;;
11590;SDS011;5851;54.050;9.974;2024-02-04T00:09:38;15.32;;;3.30;;
11590;SDS011;5851;54.050;9.974;2024-02-04T00:12:05;12.63;;;3.40;;
11590;SDS011;5851;54.050;9.974;2024-02-04T00:14:32;13.88;;;3.08;;
11590;SDS011;5851;54.050;9.974;2024-02-04T00:16:59;12.98;;;3.20;;
11590;SDS011;5851;54.050;9.974;2024-02-04T00:19:27;13.35;;;3.38;;
11590;SDS011;5851;54.050;9.974;2024-02-04T00:21:54;14.15;;;3.30;;
11590;SDS011;5851;54.050;9.974;2024-02-04T00:24:21;10.32;;;3.00;;
11590;SDS011;5851;54.050;9.974;2024-02-04T00:26:49;12.45;;;2.83;;
11590;SDS011;5851;54.050;9.974;2024-02-04T00:29:16;15.47;;;3.70;;
11590;SDS011;5851;54.050;9.974;2024-02-04T00:31:43;15.80;;;3.28;;
11590;SDS011;5851;54.050;9.974;2024-02-04T00:34:10;11.10;;;3.17;;
11590;SDS011;5851;54.050;9.974;2024-02-04T00:36:38;12.52;;;2.70;;
11590;SDS011;5851;54.050;9.974;2024-02-04T00:39:05;14.38;;;3.20;;
11590;SDS011;5851;54.050;9.974;2024-02-04T00:41:32;13.60;;;3.30;;
11590;SDS011;5851;54.050;9.974;2024-02-04T00:43:59;11.00;;;3.00;;
11590;SDS011;5851;54.050;9.974;2024-02-04T00:46:26;12.63;;;2.72;;
11590;SDS011;5851;54.050;9.974;2024-02-04T00:48:53;10.75;;;3.15;;
11590;SDS011;5851;54.050;9.974;2024-02-04T00:51:20;11.15;;;2.95;;
11590;SDS011;5851;54.050;9.974;2024-02-04T00:53:49;14.82;;;3.00;;
11590;SDS011;5851;54.050;9.974;2024-02-04T00:56:18;15.25;;;3.45;;
11590;SDS011;5851;54.050;9.974;2024-02-04T00:58:45;11.52;;;3.10;;
11590;SDS011;5851;54.050;9.974;2024-02-04T01:01:11;13.10;;;3.45;;
11590;SDS011;5851;54.050;9.974;2024-02-04T01:03:38;11.00;;;3.03;;
11590;SDS011;5851;54.050;9.974;2024-02-04T01:06:06;12.68;;;2.90;;
11590;SDS011;5851;54.050;9.974;2024-02-04T01:08:33;10.50;;;2.92;;
11590;SDS011;5851;54.050;9.974;2024-02-04T01:11:04;11.13;;;2.90;;
11590;SDS011;5851;54.050;9.974;2024-02-04T01:13:31;9.82;;;2.80;;
11590;SDS011;5851;54.050;9.974;2024-02-04T01:15:58;13.18;;;3.40;;
11590;SDS011;5851;54.050;9.974;2024-02-04T01:18:25;16.27;;;3.27;;
11590;SDS011;5851;54.050;9.974;2024-02-04T01:20:52;11.10;;;2.72;;
11590;SDS011;5851;54.050;9.974;2024-02-04T01:23:19;11.70;;;3.13;;
11590;SDS011;5851;54.050;9.974;2024-02-04T01:25:45;14.65;;;3.45;;
11590;SDS011;5851;54.050;9.974;2024-02-04T01:28:13;14.45;;;3.25;;
11590;SDS011;5851;54.050;9.974;2024-02-04T01:30:40;14.00;;;2.92;;
11590;SDS011;5851;54.050;9.974;2024-02-04T01:33:07;13.75;;;3.40;;
11590;SDS011;5851;54.050;9.974;2024-02-04T01:35:34;8.82;;;2.78;;
11590;SDS011;5851;54.050;9.974;2024-02-04T01:38:01;11.50;;;2.97;;
11590;SDS011;5851;54.050;9.974;2024-02-04T01:40:29;13.77;;;3.20;;
11590;SDS011;5851;54.050;9.974;2024-02-04T01:42:55;10.60;;;3.00;;
11590;SDS011;5851;54.050;9.974;2024-02-04T01:45:24;11.52;;;2.90;;
11590;SDS011;5851;54.050;9.974;2024-02-04T01:47:51;10.88;;;2.95;;
11590;SDS011;5851;54.050;9.974;2024-02-04T01:50:19;12.43;;;2.72;;
11590;SDS011;5851;54.050;9.974;2024-02-04T01:52:47;12.98;;;3.03;;
11590;SDS011;5851;54.050;9.974;2024-02-04T01:55:15;12.50;;;3.13;;
11590;SDS011;5851;54.050;9.974;2024-02-04T01:57:42;9.20;;;2.60;;
11590;SDS011;5851;54.050;9.974;2024-02-04T02:00:10;15.70;;;3.38;;
11590;SDS011;5851;54.050;9.974;2024-02-04T02:02:40;12.93;;;2.87;;
11590;SDS011;5851;54.050;9.974;2024-02-04T02:05:08;9.95;;;2.90;;
11590;SDS011;5851;54.050;9.974;2024-02-04T02:07:35;12.02;;;3.20;;
11590;SDS011;5851;54.050;9.974;2024-02-04T02:10:02;13.38;;;2.97;;
11590;SDS011;5851;54.050;9.974;2024-02-04T02:12:33;11.25;;;2.88;;
11590;SDS011;5851;54.050;9.974;2024-02-04T02:15:07;12.23;;;3.17;;
11590;SDS011;5851;54.050;9.974;2024-02-04T02:17:42;10.90;;;2.87;;
11590;SDS011;5851;54.050;9.974;2024-02-04T02:20:16;13.27;;;2.80;;
11590;SDS011;5851;54.050;9.974;2024-02-04T02:22:49;16.25;;;3.28;;
11590;SDS011;5851;54.050;9.974;2024-02-04T02:25:18;13.32;;;2.88;;
11590;SDS011;5851;54.050;9.974;2024-02-04T02:27:47;9.93;;;2.60;;
11590;SDS011;5851;54.050;9.974;2024-02-04T02:30:15;11.23;;;2.47;;
11590;SDS011;5851;54.050;9.974;2024-02-04T02:32:43;11.70;;;3.03;;
11590;SDS011;5851;54.050;9.974;2024-02-04T02:35:11;14.02;;;3.05;;
11590;SDS011;5851;54.050;9.974;2024-02-04T02:37:40;11.77;;;2.83;;
11590;SDS011;5851;54.050;9.974;2024-02-04T02:40:16;12.13;;;3.00;;
11590;SDS011;5851;54.050;9.974;2024-02-04T02:42:49;10.00;;;2.70;;
11590;SDS011;5851;54.050;9.974;2024-02-04T02:45:18;14.20;;;3.20;;
11590;SDS011;5851;54.050;9.974;2024-02-04T02:47:47;12.32;;;3.08;;
11590;SDS011;5851;54.050;9.974;2024-02-04T02:50:16;11.00;;;2.90;;
11590;SDS011;5851;54.050;9.974;2024-02-04T02:52:43;10.63;;;2.75;;
11590;SDS011;5851;54.050;9.974;2024-02-04T02:55:10;15.32;;;2.92;;
11590;SDS011;5851;54.050;9.974;2024-02-04T02:57:38;12.75;;;3.00;;
11590;SDS011;5851;54.050;9.974;2024-02-04T03:00:06;10.52;;;2.85;;
11590;SDS011;5851;54.050;9.974;2024-02-04T03:02:34;12.50;;;2.72;;
11590;SDS011;5851;54.050;9.974;2024-02-04T03:05:01;12.35;;;2.60;;
11590;SDS011;5851;54.050;9.974;2024-02-04T03:07:28;12.20;;;3.20;;
11590;SDS011;5851;54.050;9.974;2024-02-04T03:09:55;9.30;;;2.60;;
11590;SDS011;5851;54.050;9.974;2024-02-04T03:12:22;10.43;;;2.85;;
11590;SDS011;5851;54.050;9.974;2024-02-04T03:14:50;11.90;;;2.88;;
11590;SDS011;5851;54.050;9.974;2024-02-04T03:17:17;11.53;;;3.07;;
11590;SDS011;5851;54.050;9.974;2024-02-04T03:19:46;11.50;;;2.80;;
11590;SDS011;5851;54.050;9.974;2024-02-04T03:22:14;12.55;;;2.80;;
11590;SDS011;5851;54.050;9.974;2024-02-04T03:24:41;14.35;;;3.17;;
11590;SDS011;5851;54.050;9.974;2024-02-04T03:27:07;11.32;;;2.88;;
11590;SDS011;5851;54.050;9.974;2024-02-04T03:29:35;11.43;;;3.25;;
11590;SDS011;5851;54.050;9.974;2024-02-04T03:32:03;12.07;;;3.05;;
11590;SDS011;5851;54.050;9.974;2024-02-04T03:34:31;13.27;;;2.97;;
11590;SDS011;5851;54.050;9.974;2024-02-04T03:36:58;11.70;;;3.03;;
11590;SDS011;5851;54.050;9.974;2024-02-04T03:39:25;8.57;;;2.60;;
11590;SDS011;5851;54.050;9.974;2024-02-04T03:41:52;13.93;;;3.03;;
11590;SDS011;5851;54.050;9.974;2024-02-04T03:44:19;14.03;;;3.00;;
11590;SDS011;5851;54.050;9.974;2024-02-04T03:46:47;12.80;;;2.85;;
11590;SDS011;5851;54.050;9.974;2024-02-04T03:49:16;12.02;;;2.55;;
11590;SDS011;5851;54.050;9.974;2024-02-04T03:51:43;14.20;;;3.60;;
11590;SDS011;5851;54.050;9.974;2024-02-04T03:54:11;10.82;;;3.25;;
11590;SDS011;5851;54.050;9.974;2024-02-04T03:56:38;12.32;;;3.33;;
11590;SDS011;5851;54.050;9.974;2024-02-04T03:59:05;11.17;;;2.70;;
11590;SDS011;5851;54.050;9.974;2024-02-04T04:01:36;13.50;;;3.25;;
11590;SDS011;5851;54.050;9.974;2024-02-04T04:04:03;11.30;;;3.20;;
11590;SDS011;5851;54.050;9.974;2024-02-04T04:06:31;15.10;;;3.00;;
11590;SDS011;5851;54.050;9.974;2024-02-04T04:08:58;13.15;;;2.92;;
11590;SDS011;5851;54.050;9.974;2024-02-04T04:11:28;11.68;;;2.97;;
11590;SDS011;5851;54.050;9.974;2024-02-04T04:13:55;9.00;;;2.40;;
11590;SDS011;5851;54.050;9.974;2024-02-04T04:16:22;10.48;;;2.97;;
11590;SDS011;5851;54.050;9.974;2024-02-04T04:18:49;13.07;;;2.78;;
11590;SDS011;5851;54.050;9.974;2024-02-04T04:21:16;10.57;;;2.90;;
11590;SDS011;5851;54.050;9.974;2024-02-04T04:23:45;11.70;;;2.88;;
11590;SDS011;5851;54.050;9.974;2024-02-04T04:26:12;11.75;;;3.20;;
11590;SDS011;5851;54.050;9.974;2024-02-04T04:28:39;14.27;;;2.60;;
11590;SDS011;5851;54.050;9.974;2024-02-04T04:31:06;15.45;;;2.80;;
11590;SDS011;5851;54.050;9.974;2024-02-04T04:33:33;11.40;;;2.70;;
11590;SDS011;5851;54.050;9.974;2024-02-04T04:36:00;12.73;;;2.83;;
11590;SDS011;5851;54.050;9.974;2024-02-04T04:38:27;14.25;;;3.08;;
11590;SDS011;5851;54.050;9.974;2024-02-04T04:40:55;13.20;;;2.95;;
11590;SDS011;5851;54.050;9.974;2024-02-04T04:43:22;12.37;;;3.30;;
11590;SDS011;5851;54.050;9.974;2024-02-04T04:45:49;12.05;;;2.83;;
11590;SDS011;5851;54.050;9.974;2024-02-04T04:48:16;14.35;;;3.60;;
11590;SDS011;5851;54.050;9.974;2024-02-04T04:50:43;12.65;;;3.17;;
11590;SDS011;5851;54.050;9.974;2024-02-04T04:53:10;14.40;;;3.08;;
11590;SDS011;5851;54.050;9.974;2024-02-04T04:55:37;11.18;;;2.85;;
11590;SDS011;5851;54.050;9.974;2024-02-04T04:58:05;11.85;;;2.70;;
11590;SDS011;5851;54.050;9.974;2024-02-04T05:00:33;10.35;;;2.50;;
11590;SDS011;5851;54.050;9.974;2024-02-04T05:03:00;12.57;;;2.88;;
11590;SDS011;5851;54.050;9.974;2024-02-04T05:05:27;12.70;;;3.20;;
11590;SDS011;5851;54.050;9.974;2024-02-04T05:07:54;11.80;;;2.90;;
11590;SDS011;5851;54.050;9.974;2024-02-04T05:10:21;13.50;;;3.08;;
11590;SDS011;5851;54.050;9.974;2024-02-04T05:12:48;13.57;;;3.35;;
11590;SDS011;5851;54.050;9.974;2024-02-04T05:15:16;11.83;;;3.17;;
11590;SDS011;5851;54.050;9.974;2024-02-04T05:17:43;12.30;;;3.00;;
11590;SDS011;5851;54.050;9.974;2024-02-04T05:20:10;13.07;;;2.60;;
11590;SDS011;5851;54.050;9.974;2024-02-04T05:22:37;12.98;;;3.10;;
11590;SDS011;5851;54.050;9.974;2024-02-04T05:25:05;13.93;;;2.80;;
11590;SDS011;5851;54.050;9.974;2024-02-04T05:27:33;12.63;;;3.58;;
11590;SDS011;5851;54.050;9.974;2024-02-04T05:30:01;10.57;;;3.13;;
11590;SDS011;5851;54.050;9.974;2024-02-04T05:32:30;14.48;;;3.30;;
11590;SDS011;5851;54.050;9.974;2024-02-04T05:34:57;14.18;;;3.30;;
11590;SDS011;5851;54.050;9.974;2024-02-04T05:37:26;14.03;;;3.17;;
11590;SDS011;5851;54.050;9.974;2024-02-04T05:39:53;10.75;;;3.10;;
11590;SDS011;5851;54.050;9.974;2024-02-04T05:42:20;12.77;;;3.35;;
11590;SDS011;5851;54.050;9.974;2024-02-04T05:44:47;14.23;;;3.22;;
11590;SDS011;5851;54.050;9.974;2024-02-04T05:47:14;10.32;;;2.90;;
11590;SDS011;5851;54.050;9.974;2024-02-04T05:49:42;15.68;;;3.20;;
11590;SDS011;5851;54.050;9.974;2024-02-04T05:52:11;14.50;;;3.40;;
11590;SDS011;5851;54.050;9.974;2024-02-04T05:54:38;14.90;;;3.25;;
11590;SDS011;5851;54.050;9.974;2024-02-04T05:57:05;12.70;;;2.90;;
11590;SDS011;5851;54.050;9.974;2024-02-04T05:59:33;14.48;;;3.10;;
11590;SDS011;5851;54.050;9.974;2024-02-04T06:02:02;9.95;;;2.95;;
11590;SDS011;5851;54.050;9.974;2024-02-04T06:04:29;17.48;;;3.70;;
11590;SDS011;5851;54.050;9.974;2024-02-04T06:06:58;14.70;;;3.65;;
11590;SDS011;5851;54.050;9.974;2024-02-04T06:09:26;14.15;;;3.20;;
11590;SDS011;5851;54.050;9.974;2024-02-04T06:11:53;12.93;;;3.20;;
11590;SDS011;5851;54.050;9.974;2024-02-04T06:14:20;12.35;;;3.25;;
11590;SDS011;5851;54.050;9.974;2024-02-04T06:16:47;14.60;;;3.53;;
11590;SDS011;5851;54.050;9.974;2024-02-04T06:19:14;14.10;;;3.40;;
11590;SDS011;5851;54.050;9.974;2024-02-04T06:21:41;12.38;;;3.22;;
11590;SDS011;5851;54.050;9.974;2024-02-04T06:24:09;14.65;;;3.17;;
11590;SDS011;5851;54.050;9.974;2024-02-04T06:26:37;14.27;;;3.20;;
11590;SDS011;5851;54.050;9.974;2024-02-04T06:29:05;11.70;;;3.50;;
11590;SDS011;5851;54.050;9.974;2024-02-04T06:31:31;17.88;;;3.70;;
11590;SDS011;5851;54.050;9.974;2024-02-04T06:33:58;17.30;;;3.73;;
11590;SDS011;5851;54.050;9.974;2024-02-04T06:36:26;17.02;;;3.55;;
11590;SDS011;5851;54.050;9.974;2024-02-04T06:38:53;16.17;;;3.37;;
11590;SDS011;5851;54.050;9.974;2024-02-04T06:41:21;14.55;;;3.20;;
11590;SDS011;5851;54.050;9.974;2024-02-04T06:43:48;15.50;;;3.55;;
11590;SDS011;5851;54.050;9.974;2024-02-04T06:46:23;14.83;;;3.40;;
11590;SDS011;5851;54.050;9.974;2024-02-04T06:48:51;17.67;;;4.00;;
11590;SDS011;5851;54.050;9.974;2024-02-04T06:51:18;15.73;;;3.42;;
11590;SDS011;5851;54.050;9.974;2024-02-04T06:53:45;16.75;;;3.58;;
11590;SDS011;5851;54.050;9.974;2024-02-04T06:56:12;13.45;;;3.42;;
11590;SDS011;5851;54.050;9.974;2024-02-04T06:58:40;13.50;;;3.20;;
11590;SDS011;5851;54.050;9.974;2024-02-04T07:01:08;15.48;;;3.53;;
11590;SDS011;5851;54.050;9.974;2024-02-04T07:03:35;15.68;;;3.28;;
11590;SDS011;5851;54.050;9.974;2024-02-04T07:06:02;12.38;;;3.47;;
11590;SDS011;5851;54.050;9.974;2024-02-04T07:08:30;15.82;;;4.03;;
11590;SDS011;5851;54.050;9.974;2024-02-04T07:10:57;14.80;;;3.53;;
11590;SDS011;5851;54.050;9.974;2024-02-04T07:13:24;17.20;;;3.27;;
11590;SDS011;5851;54.050;9.974;2024-02-04T07:15:52;11.90;;;3.08;;
11590;SDS011;5851;54.050;9.974;2024-02-04T07:18:19;16.43;;;3.83;;
11590;SDS011;5851;54.050;9.974;2024-02-04T07:20:47;14.23;;;3.40;;
11590;SDS011;5851;54.050;9.974;2024-02-04T07:23:14;14.10;;;3.70;;
11590;SDS011;5851;54.050;9.974;2024-02-04T07:25:41;15.55;;;4.00;;
11590;SDS011;5851;54.050;9.974;2024-02-04T07:28:08;14.80;;;3.28;;
11590;SDS011;5851;54.050;9.974;2024-02-04T07:30:35;14.00;;;3.55;;
11590;SDS011;5851;54.050;9.974;2024-02-04T07:33:04;15.95;;;3.63;;
11590;SDS011;5851;54.050;9.974;2024-02-04T07:35:31;15.48;;;3.70;;
11590;SDS011;5851;54.050;9.974;2024-02-04T07:37:58;14.77;;;3.75;;
11590;SDS011;5851;54.050;9.974;2024-02-04T07:40:25;17.17;;;3.80;;
11590;SDS011;5851;54.050;9.974;2024-02-04T07:42:53;14.82;;;3.45;;
11590;SDS011;5851;54.050;9.974;2024-02-04T07:45:20;18.70;;;4.00;;
11590;SDS011;5851;54.050;9.974;2024-02-04T07:47:47;16.43;;;3.87;;
11590;SDS011;5851;54.050;9.974;2024-02-04T07:50:16;14.73;;;3.50;;
11590;SDS011;5851;54.050;9.974;2024-02-04T07:52:43;15.75;;;3.67;;
11590;SDS011;5851;54.050;9.974;2024-02-04T07:55:10;17.75;;;4.25;;
11590;SDS011;5851;54.050;9.974;2024-02-04T07:57:37;15.82;;;3.67;;
11590;SDS011;5851;54.050;9.974;2024-02-04T08:00:05;13.87;;;3.57;;
11590;SDS011;5851;54.050;9.974;2024-02-04T08:02:35;17.67;;;3.85;;
11590;SDS011;5851;54.050;9.974;2024-02-04T08:05:02;18.45;;;4.20;;
11590;SDS011;5851;54.050;9.974;2024-02-04T08:07:31;18.17;;;4.40;;
11590;SDS011;5851;54.050;9.974;2024-02-04T08:09:58;18.08;;;3.80;;
11590;SDS011;5851;54.050;9.974;2024-02-04T08:12:25;13.53;;;3.40;;
11590;SDS011;5851;54.050;9.974;2024-02-04T08:14:52;15.18;;;3.65;;
11590;SDS011;5851;54.050;9.974;2024-02-04T08:17:19;12.93;;;3.50;;
11590;SDS011;5851;54.050;9.974;2024-02-04T08:19:46;16.17;;;3.83;;
11590;SDS011;5851;54.050;9.974;2024-02-04T08:22:13;15.90;;;3.78;;
11590;SDS011;5851;54.050;9.974;2024-02-04T08:24:41;16.52;;;3.65;;
11590;SDS011;5851;54.050;9.974;2024-02-04T08:27:08;16.25;;;3.90;;
11590;SDS011;5851;54.050;9.974;2024-02-04T08:29:35;16.52;;;4.05;;
11590;SDS011;5851;54.050;9.974;2024-02-04T08:32:02;17.77;;;3.97;;
11590;SDS011;5851;54.050;9.974;2024-02-04T08:34:29;18.27;;;3.72;;
11590;SDS011;5851;54.050;9.974;2024-02-04T08:36:58;17.98;;;3.55;;
11590;SDS011;5851;54.050;9.974;2024-02-04T08:39:25;15.75;;;3.78;;
11590;SDS011;5851;54.050;9.974;2024-02-04T08:41:53;18.17;;;3.90;;
11590;SDS011;5851;54.050;9.974;2024-02-04T08:44:20;16.20;;;3.83;;
11590;SDS011;5851;54.050;9.974;2024-02-04T08:46:47;16.25;;;4.13;;
11590;SDS011;5851;54.050;9.974;2024-02-04T08:49:14;14.82;;;3.78;;
11590;SDS011;5851;54.050;9.974;2024-02-04T08:51:41;15.32;;;4.07;;
11590;SDS011;5851;54.050;9.974;2024-02-04T08:54:08;13.73;;;3.88;;
11590;SDS011;5851;54.050;9.974;2024-02-04T08:56:35;17.63;;;3.85;;
11590;SDS011;5851;54.050;9.974;2024-02-04T08:59:03;13.95;;;3.78;;
11590;SDS011;5851;54.050;9.974;2024-02-04T09:01:31;15.03;;;3.47;;
11590;SDS011;5851;54.050;9.974;2024-02-04T09:03:58;19.48;;;3.95;;
11590;SDS011;5851;54.050;9.974;2024-02-04T09:06:25;15.02;;;4.18;;
11590;SDS011;5851;54.050;9.974;2024-02-04T09:08:52;19.30;;;4.10;;
11590;SDS011;5851;54.050;9.974;2024-02-04T09:11:19;16.55;;;3.83;;
11590;SDS011;5851;54.050;9.974;2024-02-04T09:13:45;17.10;;;3.75;;
11590;SDS011;5851;54.050;9.974;2024-02-04T09:16:14;16.33;;;3.83;;
11590;SDS011;5851;54.050;9.974;2024-02-04T09:18:41;17.67;;;4.13;;
11590;SDS011;5851;54.050;9.974;2024-02-04T09:21:08;15.70;;;3.93;;
11590;SDS011;5851;54.050;9.974;2024-02-04T09:23:35;16.30;;;4.00;;
11590;SDS011;5851;54.050;9.974;2024-02-04T09:26:01;15.38;;;3.78;;
11590;SDS011;5851;54.050;9.974;2024-02-04T09:28:28;16.08;;;4.00;;
11590;SDS011;5851;54.050;9.974;2024-02-04T09:30:55;15.40;;;3.83;;
11590;SDS011;5851;54.050;9.974;2024-02-04T09:33:24;18.02;;;4.20;;
11590;SDS011;5851;54.050;9.974;2024-02-04T09:35:51;18.52;;;4.28;;
11590;SDS011;5851;54.050;9.974;2024-02-04T09:38:19;16.87;;;3.97;;
11590;SDS011;5851;54.050;9.974;2024-02-04T09:40:46;15.68;;;3.85;;
11590;SDS011;5851;54.050;9.974;2024-02-04T09:43:14;17.88;;;4.03;;
11590;SDS011;5851;54.050;9.974;2024-02-04T09:45:41;17.73;;;4.30;;
11590;SDS011;5851;54.050;9.974;2024-02-04T09:48:08;17.02;;;4.00;;
11590;SDS011;5851;54.050;9.974;2024-02-04T09:50:38;16.77;;;4.25;;
11590;SDS011;5851;54.050;9.974;2024-02-04T09:53:05;17.98;;;3.85;;
11590;SDS011;5851;54.050;9.974;2024-02-04T09:55:35;17.35;;;4.03;;
11590;SDS011;5851;54.050;9.974;2024-02-04T09:58:05;17.13;;;4.10;;
11590;SDS011;5851;54.050;9.974;2024-02-04T10:00:33;13.30;;;3.88;;
11590;SDS011;5851;54.050;9.974;2024-02-04T10:02:59;14.35;;;3.85;;
11590;SDS011;5851;54.050;9.974;2024-02-04T10:05:27;16.55;;;4.15;;
11590;SDS011;5851;54.050;9.974;2024-02-04T10:07:55;17.52;;;4.35;;
11590;SDS011;5851;54.050;9.974;2024-02-04T10:10:22;16.50;;;4.05;;
11590;SDS011;5851;54.050;9.974;2024-02-04T10:12:49;17.43;;;3.97;;
11590;SDS011;5851;54.050;9.974;2024-02-04T10:15:16;19.08;;;4.50;;
11590;SDS011;5851;54.050;9.974;2024-02-04T10:17:44;18.50;;;4.28;;
11590;SDS011;5851;54.050;9.974;2024-02-04T10:20:12;15.33;;;4.30;;
11590;SDS011;5851;54.050;9.974;2024-02-04T10:22:39;16.27;;;3.95;;
11590;SDS011;5851;54.050;9.974;2024-02-04T10:25:07;19.23;;;4.30;;
11590;SDS011;5851;54.050;9.974;2024-02-04T10:27:37;17.45;;;4.20;;
11590;SDS011;5851;54.050;9.974;2024-02-04T10:30:05;14.48;;;3.97;;
11590;SDS011;5851;54.050;9.974;2024-02-04T10:32:32;17.33;;;3.53;;
11590;SDS011;5851;54.050;9.974;2024-02-04T10:35:00;14.95;;;3.90;;
11590;SDS011;5851;54.050;9.974;2024-02-04T10:37:27;17.38;;;3.70;;
11590;SDS011;5851;54.050;9.974;2024-02-04T10:39:54;14.07;;;3.70;;
11590;SDS011;5851;54.050;9.974;2024-02-04T10:42:23;16.20;;;3.72;;
11590;SDS011;5851;54.050;9.974;2024-02-04T10:44:52;14.73;;;3.67;;
11590;SDS011;5851;54.050;9.974;2024-02-04T10:47:22;17.40;;;4.20;;
11590;SDS011;5851;54.050;9.974;2024-02-04T10:49:50;12.70;;;3.40;;
11590;SDS011;5851;54.050;9.974;2024-02-04T10:52:19;16.42;;;3.75;;
11590;SDS011;5851;54.050;9.974;2024-02-04T10:54:48;17.35;;;4.05;;
11590;SDS011;5851;54.050;9.974;2024-02-04T10:57:19;14.75;;;3.92;;
11590;SDS011;5851;54.050;9.974;2024-02-04T10:59:49;15.80;;;3.90;;
11590;SDS011;5851;54.050;9.974;2024-02-04T11:02:18;14.38;;;3.80;;
11590;SDS011;5851;54.050;9.974;2024-02-04T11:04:48;17.93;;;4.70;;
11590;SDS011;5851;54.050;9.974;2024-02-04T11:07:15;20.25;;;4.10;;
11590;SDS011;5851;54.050;9.974;2024-02-04T11:09:44;15.43;;;3.90;;
11590;SDS011;5851;54.050;9.974;2024-02-04T11:12:14;18.00;;;4.07;;
11590;SDS011;5851;54.050;9.974;2024-02-04T11:14:43;16.13;;;3.72;;
11590;SDS011;5851;54.050;9.974;2024-02-04T11:20:27;15.40;;;3.55;;
11590;SDS011;5851;54.050;9.974;2024-02-04T11:23:22;17.10;;;4.15;;
11590;SDS011;5851;54.050;9.974;2024-02-04T11:25:57;15.65;;;4.00;;
11590;SDS011;5851;54.050;9.974;2024-02-04T11:28:26;17.33;;;4.03;;
11590;SDS011;5851;54.050;9.974;2024-02-04T11:30:54;15.50;;;3.97;;
11590;SDS011;5851;54.050;9.974;2024-02-04T11:33:22;19.25;;;4.05;;
11590;SDS011;5851;54.050;9.974;2024-02-04T11:35:58;18.00;;;3.53;;
11590;SDS011;5851;54.050;9.974;2024-02-04T11:38:29;15.73;;;3.90;;
11590;SDS011;5851;54.050;9.974;2024-02-04T11:40:57;20.60;;;4.53;;
11590;SDS011;5851;54.050;9.974;2024-02-04T11:43:24;20.17;;;4.60;;
11590;SDS011;5851;54.050;9.974;2024-02-04T11:45:51;19.33;;;4.50;;
11590;SDS011;5851;54.050;9.974;2024-02-04T11:48:28;19.30;;;4.50;;
11590;SDS011;5851;54.050;9.974;2024-02-04T11:50:57;15.85;;;4.25;;
11590;SDS011;5851;54.050;9.974;2024-02-04T11:53:25;14.27;;;3.92;;
11590;SDS011;5851;54.050;9.974;2024-02-04T11:55:54;16.23;;;3.75;;
11590;SDS011;5851;54.050;9.974;2024-02-04T11:58:21;18.40;;;4.90;;
11590;SDS011;5851;54.050;9.974;2024-02-04T12:00:50;16.88;;;3.47;;
11590;SDS011;5851;54.050;9.974;2024-02-04T12:03:27;21.15;;;4.50;;
11590;SDS011;5851;54.050;9.974;2024-02-04T12:05:57;19.65;;;4.35;;
11590;SDS011;5851;54.050;9.974;2024-02-04T12:08:24;13.80;;;3.55;;
11590;SDS011;5851;54.050;9.974;2024-02-04T12:10:53;17.95;;;3.83;;
11590;SDS011;5851;54.050;9.974;2024-02-04T12:13:21;16.92;;;4.28;;
11590;SDS011;5851;54.050;9.974;2024-02-04T12:15:49;16.25;;;4.30;;
11590;SDS011;5851;54.050;9.974;2024-02-04T12:18:16;18.30;;;4.30;;
11590;SDS011;5851;54.050;9.974;2024-02-04T12:20:46;17.83;;;4.72;;
11590;SDS011;5851;54.050;9.974;2024-02-04T12:23:14;19.20;;;4.57;;
11590;SDS011;5851;54.050;9.974;2024-02-04T12:25:42;16.25;;;4.43;;
11590;SDS011;5851;54.050;9.974;2024-02-04T12:28:09;23.02;;;5.22;;
11590;SDS011;5851;54.050;9.974;2024-02-04T12:30:37;17.83;;;4.55;;
11590;SDS011;5851;54.050;9.974;2024-02-04T12:33:04;19.80;;;4.10;;
11590;SDS011;5851;54.050;9.974;2024-02-04T12:35:32;20.05;;;4.20;;
11590;SDS011;5851;54.050;9.974;2024-02-04T12:38:00;17.87;;;4.10;;
11590;SDS011;5851;54.050;9.974;2024-02-04T12:40:28;17.67;;;4.18;;
11590;SDS011;5851;54.050;9.974;2024-02-04T12:42:57;17.60;;;4.13;;
11590;SDS011;5851;54.050;9.974;2024-02-04T12:45:26;15.55;;;3.92;;
11590;SDS011;5851;54.050;9.974;2024-02-04T12:47:54;17.83;;;3.83;;
11590;SDS011;5851;54.050;9.974;2024-02-04T12:50:22;14.63;;;4.50;;
11590;SDS011;5851;54.050;9.974;2024-02-04T12:53:02;19.47;;;4.20;;
11590;SDS011;5851;54.050;9.974;2024-02-04T12:55:30;16.87;;;4.00;;
11590;SDS011;5851;54.050;9.974;2024-02-04T12:58:02;13.60;;;3.75;;
11590;SDS011;5851;54.050;9.974;2024-02-04T13:00:29;17.63;;;4.07;;
11590;SDS011;5851;54.050;9.974;2024-02-04T13:02:56;11.23;;;3.08;;
11590;SDS011;5851;54.050;9.974;2024-02-04T13:05:23;16.73;;;4.83;;
11590;SDS011;5851;54.050;9.974;2024-02-04T13:07:52;16.50;;;3.77;;
11590;SDS011;5851;54.050;9.974;2024-02-04T13:10:22;21.67;;;5.35;;
11590;SDS011;5851;54.050;9.974;2024-02-04T13:13:00;17.17;;;4.28;;
11590;SDS011;5851;54.050;9.974;2024-02-04T13:15:28;17.23;;;4.13;;
11590;SDS011;5851;54.050;9.974;2024-02-04T13:17:55;17.30;;;4.30;;
11590;SDS011;5851;54.050;9.974;2024-02-04T13:20:22;17.35;;;4.88;;
11590;SDS011;5851;54.050;9.974;2024-02-04T13:22:50;13.15;;;3.85;;
11590;SDS011;5851;54.050;9.974;2024-02-04T13:25:18;14.93;;;3.80;;
11590;SDS011;5851;54.050;9.974;2024-02-04T13:27:48;19.47;;;4.30;;
11590;SDS011;5851;54.050;9.974;2024-02-04T13:30:15;14.63;;;3.72;;
11590;SDS011;5851;54.050;9.974;2024-02-04T13:32:42;19.95;;;4.82;;
11590;SDS011;5851;54.050;9.974;2024-02-04T13:35:09;15.73;;;4.18;;
11590;SDS011;5851;54.050;9.974;2024-02-04T13:37:37;18.90;;;4.25;;
11590;SDS011;5851;54.050;9.974;2024-02-04T13:40:06;13.88;;;4.00;;
11590;SDS011;5851;54.050;9.974;2024-02-04T13:42:35;15.13;;;3.63;;
11590;SDS011;5851;54.050;9.974;2024-02-04T13:45:04;12.98;;;3.83;;
11590;SDS011;5851;54.050;9.974;2024-02-04T13:47:32;16.02;;;3.92;;
11590;SDS011;5851;54.050;9.974;2024-02-04T13:49:59;18.98;;;4.65;;
11590;SDS011;5851;54.050;9.974;2024-02-04T13:52:26;15.52;;;4.20;;
11590;SDS011;5851;54.050;9.974;2024-02-04T13:54:53;16.83;;;4.00;;
11590;SDS011;5851;54.050;9.974;2024-02-04T13:57:20;15.63;;;4.40;;
11590;SDS011;5851;54.050;9.974;2024-02-04T13:59:47;14.90;;;3.63;;
11590;SDS011;5851;54.050;9.974;2024-02-04T14:02:16;17.40;;;4.00;;
11590;SDS011;5851;54.050;9.974;2024-02-04T14:04:43;16.67;;;4.00;;
11590;SDS011;5851;54.050;9.974;2024-02-04T14:07:11;20.27;;;3.90;;
11590;SDS011;5851;54.050;9.974;2024-02-04T14:09:38;17.25;;;4.50;;
11590;SDS011;5851;54.050;9.974;2024-02-04T14:12:06;17.17;;;3.78;;
11590;SDS011;5851;54.050;9.974;2024-02-04T14:14:34;12.55;;;3.63;;
11590;SDS011;5851;54.050;9.974;2024-02-04T14:17:01;14.02;;;3.65;;
11590;SDS011;5851;54.050;9.974;2024-02-04T14:19:30;14.48;;;4.30;;
11590;SDS011;5851;54.050;9.974;2024-02-04T14:21:57;17.13;;;3.60;;
11590;SDS011;5851;54.050;9.974;2024-02-04T14:24:24;15.43;;;3.70;;
11590;SDS011;5851;54.050;9.974;2024-02-04T14:26:55;12.38;;;3.35;;
11590;SDS011;5851;54.050;9.974;2024-02-04T14:29:23;18.95;;;4.57;;
11590;SDS011;5851;54.050;9.974;2024-02-04T14:31:51;17.55;;;3.58;;
11590;SDS011;5851;54.050;9.974;2024-02-04T14:34:18;17.45;;;3.90;;
11590;SDS011;5851;54.050;9.974;2024-02-04T14:36:47;14.43;;;3.85;;
11590;SDS011;5851;54.050;9.974;2024-02-04T14:39:14;15.23;;;3.80;;
11590;SDS011;5851;54.050;9.974;2024-02-04T14:41:41;15.93;;;3.78;;
11590;SDS011;5851;54.050;9.974;2024-02-04T14:44:08;16.73;;;3.83;;
11590;SDS011;5851;54.050;9.974;2024-02-04T14:46:36;17.90;;;4.68;;
11590;SDS011;5851;54.050;9.974;2024-02-04T14:49:03;15.43;;;3.92;;
11590;SDS011;5851;54.050;9.974;2024-02-04T14:51:30;18.95;;;4.47;;
11590;SDS011;5851;54.050;9.974;2024-02-04T14:53:59;15.38;;;4.15;;
11590;SDS011;5851;54.050;9.974;2024-02-04T14:56:26;15.68;;;3.72;;